createdAt,value
2018-02-18T00:00:22.633Z,1014.49
2018-02-18T00:01:37.675Z,1014.5
2018-02-18T00:02:52.729Z,1014.53
2018-02-18T00:04:07.498Z,1014.61
2018-02-18T00:05:22.737Z,1014.57
2018-02-18T00:06:37.473Z,1014.58
2018-02-18T00:07:52.942Z,1014.62
2018-02-18T00:09:07.777Z,1014.61
2018-02-18T00:10:23.061Z,1014.66
2018-02-18T00:11:37.771Z,1014.68
2018-02-18T00:12:52.741Z,1014.68
2018-02-18T00:14:07.782Z,1014.68
2018-02-18T00:15:22.012Z,1014.65
2018-02-18T00:16:37.114Z,1014.66
2018-02-18T00:17:51.531Z,1014.67
2018-02-18T00:19:05.949Z,1014.67
2018-02-18T00:20:21.514Z,1014.67
2018-02-18T00:21:35.940Z,1014.68
2018-02-18T00:22:50.509Z,1014.73
2018-02-18T00:24:05.510Z,1014.74
2018-02-18T00:25:19.950Z,1014.75
2018-02-18T00:26:35.148Z,1014.73
2018-02-18T00:27:50.069Z,1014.77
2018-02-18T00:29:05.128Z,1014.73
2018-02-18T00:30:19.059Z,1014.72
2018-02-18T00:31:33.491Z,1014.77
2018-02-18T00:32:47.954Z,1014.74
2018-02-18T00:34:02.531Z,1014.75
2018-02-18T00:35:17.268Z,1014.75
2018-02-18T00:36:31.923Z,1014.75
2018-02-18T00:37:47.058Z,1014.75
2018-02-18T00:39:01.781Z,1014.73
2018-02-18T00:40:16.598Z,1014.73
2018-02-18T00:41:31.294Z,1014.74
2018-02-18T00:42:46.297Z,1014.77
2018-02-18T00:44:01.075Z,1014.78
2018-02-18T00:45:15.890Z,1014.78
2018-02-18T00:46:30.870Z,1014.84
2018-02-18T00:47:45.083Z,1014.82
2018-02-18T00:48:59.916Z,1014.8
2018-02-18T00:50:14.247Z,1014.82
2018-02-18T00:51:28.720Z,1014.85
2018-02-18T00:52:43.397Z,1014.85
2018-02-18T00:53:58.146Z,1014.88
2018-02-18T00:55:13.546Z,1014.9
2018-02-18T00:56:27.751Z,1014.91
2018-02-18T00:57:42.474Z,1014.92
2018-02-18T00:58:57.112Z,1014.97
2018-02-18T01:00:12.233Z,1014.93
2018-02-18T01:01:26.729Z,1014.96
2018-02-18T01:02:41.352Z,1014.94
2018-02-18T01:03:56.088Z,1014.95
2018-02-18T01:05:10.296Z,1014.95
2018-02-18T01:06:25.016Z,1014.97
2018-02-18T01:07:39.567Z,1014.97
2018-02-18T01:08:53.708Z,1014.96
2018-02-18T01:10:09.088Z,1014.9
2018-02-18T01:11:24.097Z,1014.93
2018-02-18T01:12:38.849Z,1014.97
2018-02-18T01:13:53.530Z,1014.98
2018-02-18T01:15:07.982Z,1014.94
2018-02-18T01:16:22.911Z,1014.96
2018-02-18T01:17:37.949Z,1014.94
2018-02-18T01:18:53.152Z,1014.95
2018-02-18T01:20:07.593Z,1014.98
2018-02-18T01:21:22.186Z,1014.97
2018-02-18T01:22:36.899Z,1015.01
2018-02-18T01:23:51.891Z,1015
2018-02-18T01:25:07.078Z,1015.03
2018-02-18T01:26:21.750Z,1015.04
2018-02-18T01:27:36.330Z,1015.06
2018-02-18T01:28:51.049Z,1015.08
2018-02-18T01:30:05.749Z,1015.12
2018-02-18T01:31:20.469Z,1015.1
2018-02-18T01:32:34.605Z,1015.13
2018-02-18T01:33:49.067Z,1015.14
2018-02-18T01:35:04.274Z,1015.1
2018-02-18T01:36:18.496Z,1015.1
2018-02-18T01:37:33.178Z,1015.08
2018-02-18T01:38:47.827Z,1015.07
2018-02-18T01:40:02.149Z,1015.16
2018-02-18T01:41:16.636Z,1015.12
2018-02-18T01:42:32.713Z,1015.18
2018-02-18T01:43:47.392Z,1015.15
2018-02-18T01:45:01.806Z,1015.21
2018-02-18T01:46:16.153Z,1015.16
2018-02-18T01:47:31.107Z,1015.19
2018-02-18T01:48:46.044Z,1015.14
2018-02-18T01:50:00.429Z,1015.18
2018-02-18T01:51:14.606Z,1015.18
2018-02-18T01:52:29.230Z,1015.17
2018-02-18T01:53:44.212Z,1015.18
2018-02-18T01:54:59.427Z,1015.14
2018-02-18T01:56:14.386Z,1015.15
2018-02-18T01:57:29.433Z,1015.14
2018-02-18T01:58:44.035Z,1015.1
2018-02-18T01:59:59.402Z,1015.11
2018-02-18T02:01:13.886Z,1015.14
2018-02-18T02:02:28.787Z,1015.14
2018-02-18T02:03:43.902Z,1015.16
2018-02-18T02:04:58.301Z,1015.15
2018-02-18T02:06:12.544Z,1015.13
2018-02-18T02:07:27.103Z,1015.17
2018-02-18T02:08:41.774Z,1015.14
2018-02-18T02:09:57.050Z,1015.15
2018-02-18T02:11:12.056Z,1015.11
2018-02-18T02:12:27.081Z,1015.1
2018-02-18T02:13:42.514Z,1015.1
2018-02-18T02:14:56.975Z,1015.13
2018-02-18T02:16:11.751Z,1015.15
2018-02-18T02:17:26.491Z,1015.12
2018-02-18T02:18:41.241Z,1015.16
2018-02-18T02:19:56.117Z,1015.18
2018-02-18T02:21:10.659Z,1015.24
2018-02-18T02:22:25.330Z,1015.25
2018-02-18T02:23:40.306Z,1015.29
2018-02-18T02:24:55.301Z,1015.29
2018-02-18T02:26:09.950Z,1015.28
2018-02-18T02:27:24.638Z,1015.34
2018-02-18T02:28:39.506Z,1015.38
2018-02-18T02:29:54.122Z,1015.39
2018-02-18T02:31:09.619Z,1015.37
2018-02-18T02:32:23.965Z,1015.42
2018-02-18T02:33:38.922Z,1015.39
2018-02-18T02:34:53.089Z,1015.41
2018-02-18T02:36:07.770Z,1015.38
2018-02-18T02:37:23.077Z,1015.45
2018-02-18T02:38:38.494Z,1015.42
2018-02-18T02:39:53.140Z,1015.36
2018-02-18T02:41:08.082Z,1015.33
2018-02-18T02:42:22.468Z,1015.34
2018-02-18T02:43:37.758Z,1015.31
2018-02-18T02:44:52.708Z,1015.34
2018-02-18T02:46:07.360Z,1015.33
2018-02-18T02:47:22.942Z,1015.3
2018-02-18T02:48:37.569Z,1015.3
2018-02-18T02:49:52.994Z,1015.31
2018-02-18T02:51:07.671Z,1015.25
2018-02-18T02:52:22.088Z,1015.26
2018-02-18T02:53:37.101Z,1015.27
2018-02-18T02:54:52.053Z,1015.28
2018-02-18T02:56:06.774Z,1015.23
2018-02-18T02:57:21.452Z,1015.24
2018-02-18T02:58:36.912Z,1015.26
2018-02-18T02:59:51.851Z,1015.3
2018-02-18T03:01:06.537Z,1015.27
2018-02-18T03:02:21.194Z,1015.28
2018-02-18T03:03:36.524Z,1015.27
2018-02-18T03:04:50.657Z,1015.29
2018-02-18T03:06:05.070Z,1015.28
2018-02-18T03:07:19.195Z,1015.24
2018-02-18T03:08:34.558Z,1015.21
2018-02-18T03:09:49.271Z,1015.25
2018-02-18T03:11:04.189Z,1015.29
2018-02-18T03:12:19.151Z,1015.23
2018-02-18T03:13:33.774Z,1015.25
2018-02-18T03:14:49.107Z,1015.22
2018-02-18T03:16:03.505Z,1015.25
2018-02-18T03:17:17.901Z,1015.26
2018-02-18T03:18:32.734Z,1015.28
2018-02-18T03:19:48.166Z,1015.25
2018-02-18T03:21:02.635Z,1015.27
2018-02-18T03:22:17.589Z,1015.27
2018-02-18T03:23:32.615Z,1015.26
2018-02-18T03:24:47.314Z,1015.24
2018-02-18T03:26:02.535Z,1015.28
2018-02-18T03:27:17.787Z,1015.25
2018-02-18T03:28:32.190Z,1015.31
2018-02-18T03:29:46.882Z,1015.24
2018-02-18T03:31:01.315Z,1015.3
2018-02-18T03:32:16.551Z,1015.28
2018-02-18T03:33:31.546Z,1015.29
2018-02-18T03:34:46.600Z,1015.29
2018-02-18T03:36:00.769Z,1015.34
2018-02-18T03:37:14.631Z,1015.25
2018-02-18T03:38:29.826Z,1015.29
2018-02-18T03:39:44.574Z,1015.32
2018-02-18T03:40:59.231Z,1015.29
2018-02-18T03:42:13.627Z,1015.31
2018-02-18T03:43:27.978Z,1015.24
2018-02-18T03:44:42.910Z,1015.29
2018-02-18T03:45:57.687Z,1015.28
2018-02-18T03:47:12.914Z,1015.24
2018-02-18T03:48:27.563Z,1015.23
2018-02-18T03:49:42.029Z,1015.17
2018-02-18T03:50:56.235Z,1015.24
2018-02-18T03:52:36.824Z,1015.25
2018-02-18T03:53:51.844Z,1015.28
2018-02-18T03:55:06.281Z,1015.29
2018-02-18T03:56:20.413Z,1015.35
2018-02-18T03:57:35.348Z,1015.34
2018-02-18T03:58:49.742Z,1015.4
2018-02-18T04:00:04.189Z,1015.41
2018-02-18T04:01:19.109Z,1015.46
2018-02-18T04:02:34.210Z,1015.42
2018-02-18T04:03:48.863Z,1015.46
2018-02-18T04:05:03.592Z,1015.49
2018-02-18T04:06:18.592Z,1015.5
2018-02-18T04:07:33.274Z,1015.5
2018-02-18T04:08:48.220Z,1015.51
2018-02-18T04:10:03.693Z,1015.48
2018-02-18T04:11:18.829Z,1015.5
2018-02-18T04:12:33.515Z,1015.45
2018-02-18T04:13:47.912Z,1015.51
2018-02-18T04:15:02.989Z,1015.5
2018-02-18T04:16:17.940Z,1015.48
2018-02-18T04:17:32.363Z,1015.47
2018-02-18T04:18:47.348Z,1015.49
2018-02-18T04:20:02.353Z,1015.46
2018-02-18T04:21:17.411Z,1015.47
2018-02-18T04:22:32.138Z,1015.45
2018-02-18T04:23:46.545Z,1015.46
2018-02-18T04:25:01.898Z,1015.44
2018-02-18T04:26:17.109Z,1015.43
2018-02-18T04:27:32.044Z,1015.37
2018-02-18T04:28:46.699Z,1015.5
2018-02-18T04:30:01.644Z,1015.44
2018-02-18T04:31:16.911Z,1015.49
2018-02-18T04:32:31.059Z,1015.45
2018-02-18T04:33:46.046Z,1015.43
2018-02-18T04:35:00.765Z,1015.46
2018-02-18T04:36:15.689Z,1015.48
2018-02-18T04:37:31.081Z,1015.49
2018-02-18T04:38:46.043Z,1015.53
2018-02-18T04:40:00.973Z,1015.55
2018-02-18T04:41:15.885Z,1015.56
2018-02-18T04:42:30.879Z,1015.6
2018-02-18T04:43:45.262Z,1015.54
2018-02-18T04:47:12.970Z,1015.62
2018-02-18T04:48:27.920Z,1015.6
2018-02-18T04:49:43.463Z,1015.6
2018-02-18T04:50:58.452Z,1015.6
2018-02-18T04:52:12.843Z,1015.57
2018-02-18T04:53:27.769Z,1015.6
2018-02-18T04:54:41.914Z,1015.59
2018-02-18T04:55:56.898Z,1015.56
2018-02-18T04:57:11.424Z,1015.59
2018-02-18T04:58:49.027Z,1015.6
2018-02-18T05:00:04.261Z,1015.59
2018-02-18T05:01:18.961Z,1015.59
2018-02-18T05:02:33.892Z,1015.6
2018-02-18T05:03:48.663Z,1015.56
2018-02-18T05:05:02.814Z,1015.64
2018-02-18T05:06:17.287Z,1015.65
2018-02-18T05:07:31.900Z,1015.7
2018-02-18T05:08:46.277Z,1015.71
2018-02-18T05:10:01.314Z,1015.78
2018-02-18T05:11:16.260Z,1015.77
2018-02-18T05:12:31.488Z,1015.78
2018-02-18T05:13:45.884Z,1015.8
2018-02-18T05:15:00.587Z,1015.79
2018-02-18T05:16:14.799Z,1015.78
2018-02-18T05:17:29.950Z,1015.83
2018-02-18T05:18:44.647Z,1015.86
2018-02-18T05:19:59.564Z,1015.85
2018-02-18T05:21:14.534Z,1015.89
2018-02-18T05:22:29.138Z,1015.85
2018-02-18T05:23:43.566Z,1015.85
2018-02-18T05:24:58.550Z,1015.85
2018-02-18T05:26:13.994Z,1015.9
2018-02-18T05:27:28.165Z,1015.91
2018-02-18T05:28:42.672Z,1015.9
2018-02-18T05:29:57.189Z,1015.92
2018-02-18T05:31:12.464Z,1015.93
2018-02-18T05:32:27.583Z,1015.87
2018-02-18T05:33:41.737Z,1015.91
2018-02-18T05:34:56.179Z,1015.86
2018-02-18T05:36:11.134Z,1015.82
2018-02-18T05:37:25.977Z,1015.93
2018-02-18T05:38:40.378Z,1015.89
2018-02-18T05:39:55.370Z,1015.9
2018-02-18T05:41:09.539Z,1015.92
2018-02-18T05:42:24.507Z,1015.96
2018-02-18T05:43:39.824Z,1015.99
2018-02-18T05:44:55.281Z,1015.95
2018-02-18T05:46:09.726Z,1015.99
2018-02-18T05:47:24.820Z,1015.95
2018-02-18T05:48:40.270Z,1015.96
2018-02-18T05:49:55.606Z,1015.95
2018-02-18T05:51:09.763Z,1015.9
2018-02-18T05:52:24.196Z,1015.93
2018-02-18T05:53:39.124Z,1015.93
2018-02-18T05:54:53.836Z,1015.93
2018-02-18T05:56:08.308Z,1015.97
2018-02-18T05:57:22.446Z,1015.94
2018-02-18T05:58:37.095Z,1015.99
2018-02-18T05:59:52.402Z,1015.97
2018-02-18T06:01:07.156Z,1015.96
2018-02-18T06:02:21.696Z,1015.98
2018-02-18T06:03:37.241Z,1015.99
2018-02-18T06:04:52.290Z,1016.01
2018-02-18T06:06:06.799Z,1016.01
2018-02-18T06:07:21.819Z,1016.02
2018-02-18T06:08:36.325Z,1016.02
2018-02-18T06:09:50.763Z,1016.03
2018-02-18T06:11:05.483Z,1016.06
2018-02-18T06:12:20.492Z,1016.04
2018-02-18T06:13:35.782Z,1016.08
2018-02-18T06:14:50.760Z,1016.1
2018-02-18T06:16:05.398Z,1016.11
2018-02-18T06:17:19.812Z,1016.16
2018-02-18T06:18:34.831Z,1016.14
2018-02-18T06:19:49.750Z,1016.19
2018-02-18T06:21:04.730Z,1016.18
2018-02-18T06:22:19.718Z,1016.22
2018-02-18T06:23:34.633Z,1016.21
2018-02-18T06:24:49.014Z,1016.24
2018-02-18T06:26:03.874Z,1016.23
2018-02-18T06:27:18.610Z,1016.27
2018-02-18T06:28:33.285Z,1016.26
2018-02-18T06:29:48.062Z,1016.28
2018-02-18T06:31:03.008Z,1016.26
2018-02-18T06:32:17.760Z,1016.28
2018-02-18T06:33:32.422Z,1016.26
2018-02-18T06:34:47.604Z,1016.28
2018-02-18T06:36:01.711Z,1016.26
2018-02-18T06:37:16.325Z,1016.26
2018-02-18T06:38:31.114Z,1016.29
2018-02-18T06:39:45.572Z,1016.26
2018-02-18T06:41:00.252Z,1016.3
2018-02-18T06:42:14.950Z,1016.31
2018-02-18T06:43:29.694Z,1016.28
2018-02-18T06:44:44.878Z,1016.27
2018-02-18T06:45:59.571Z,1016.33
2018-02-18T06:47:14.323Z,1016.27
2018-02-18T06:48:29.474Z,1016.27
2018-02-18T06:49:44.225Z,1016.29
2018-02-18T06:50:59.052Z,1016.27
2018-02-18T06:52:13.844Z,1016.31
2018-02-18T06:53:28.715Z,1016.3
2018-02-18T06:54:44.146Z,1016.3
2018-02-18T06:55:58.864Z,1016.32
2018-02-18T06:57:13.788Z,1016.33
2018-02-18T06:58:28.737Z,1016.38
2018-02-18T06:59:43.448Z,1016.34
2018-02-18T07:00:57.322Z,1016.34
2018-02-18T07:02:11.987Z,1016.35
2018-02-18T07:03:26.163Z,1016.34
2018-02-18T07:04:40.833Z,1016.35
2018-02-18T07:05:55.286Z,1016.38
2018-02-18T07:07:09.975Z,1016.38
2018-02-18T07:08:25.138Z,1016.34
2018-02-18T07:09:40.075Z,1016.4
2018-02-18T07:10:54.102Z,1016.42
2018-02-18T07:12:08.837Z,1016.38
2018-02-18T07:13:23.211Z,1016.36
2018-02-18T07:14:38.188Z,1016.39
2018-02-18T07:15:52.632Z,1016.32
2018-02-18T07:17:07.740Z,1016.34
2018-02-18T07:18:22.711Z,1016.36
2018-02-18T07:19:37.421Z,1016.28
2018-02-18T07:20:52.258Z,1016.32
2018-02-18T07:22:06.941Z,1016.32
2018-02-18T07:23:22.238Z,1016.29
2018-02-18T07:24:37.194Z,1016.29
2018-02-18T07:25:52.075Z,1016.28
2018-02-18T07:27:06.480Z,1016.24
2018-02-18T07:28:21.408Z,1016.26
2018-02-18T07:29:36.105Z,1016.21
2018-02-18T07:30:51.022Z,1016.23
2018-02-18T07:32:05.172Z,1016.24
2018-02-18T07:33:19.869Z,1016.14
2018-02-18T07:34:34.389Z,1016.16
2018-02-18T07:35:49.597Z,1016.16
2018-02-18T07:37:04.290Z,1016.2
2018-02-18T07:38:19.253Z,1016.19
2018-02-18T07:39:34.457Z,1016.24
2018-02-18T07:41:27.039Z,1016.26
2018-02-18T07:42:41.781Z,1016.28
2018-02-18T07:43:56.725Z,1016.25
2018-02-18T07:45:11.174Z,1016.26
2018-02-18T07:46:25.889Z,1016.22
2018-02-18T07:47:41.076Z,1016.21
2018-02-18T07:48:55.817Z,1016.2
2018-02-18T07:50:10.510Z,1016.23
2018-02-18T07:51:25.098Z,1016.24
2018-02-18T07:52:40.259Z,1016.23
2018-02-18T07:53:55.040Z,1016.29
2018-02-18T07:55:10.066Z,1016.29
2018-02-18T07:56:25.574Z,1016.29
2018-02-18T07:57:40.651Z,1016.27
2018-02-18T07:58:56.087Z,1016.29
2018-02-18T08:00:11.055Z,1016.3
2018-02-18T08:01:26.134Z,1016.3
2018-02-18T08:02:41.312Z,1016.25
2018-02-18T08:03:56.522Z,1016.28
2018-02-18T08:05:11.461Z,1016.27
2018-02-18T08:06:26.738Z,1016.27
2018-02-18T08:07:42.455Z,1016.3
2018-02-18T08:08:56.981Z,1016.26
2018-02-18T08:10:10.884Z,1016.27
2018-02-18T08:11:26.245Z,1016.32
2018-02-18T08:12:41.316Z,1016.35
2018-02-18T08:13:56.639Z,1016.34
2018-02-18T08:15:11.648Z,1016.36
2018-02-18T08:16:25.787Z,1016.39
2018-02-18T08:17:40.199Z,1016.39
2018-02-18T08:18:55.322Z,1016.36
2018-02-18T08:20:09.765Z,1016.38
2018-02-18T08:21:24.263Z,1016.37
2018-02-18T08:22:38.872Z,1016.37
2018-02-18T08:23:54.128Z,1016.42
2018-02-18T08:25:09.876Z,1016.39
2018-02-18T08:26:24.406Z,1016.4
2018-02-18T08:27:39.208Z,1016.41
2018-02-18T08:28:54.000Z,1016.41
2018-02-18T08:30:08.498Z,1016.36
2018-02-18T08:31:23.555Z,1016.37
2018-02-18T08:32:39.321Z,1016.38
2018-02-18T08:33:54.196Z,1016.3
2018-02-18T08:35:08.199Z,1016.34
2018-02-18T08:36:22.654Z,1016.29
2018-02-18T08:37:38.184Z,1016.27
2018-02-18T08:38:53.202Z,1016.28
2018-02-18T08:40:07.377Z,1016.29
2018-02-18T08:41:21.291Z,1016.31
2018-02-18T08:42:35.948Z,1016.24
2018-02-18T08:43:50.751Z,1016.26
2018-02-18T08:45:05.136Z,1016.31
2018-02-18T08:46:20.092Z,1016.29
2018-02-18T08:47:34.938Z,1016.34
2018-02-18T08:48:49.698Z,1016.34
2018-02-18T08:50:04.640Z,1016.28
2018-02-18T08:51:19.697Z,1016.34
2018-02-18T08:52:34.533Z,1016.34
2018-02-18T08:53:49.528Z,1016.33
2018-02-18T08:55:04.527Z,1016.34
2018-02-18T08:56:19.632Z,1016.3
2018-02-18T08:57:35.340Z,1016.29
2018-02-18T08:58:50.595Z,1016.28
2018-02-18T09:00:05.391Z,1016.34
2018-02-18T09:01:20.726Z,1016.36
2018-02-18T09:04:06.252Z,1016.33
2018-02-18T09:05:21.008Z,1016.36
2018-02-18T09:06:36.098Z,1016.34
2018-02-18T09:07:51.322Z,1016.26
2018-02-18T09:09:06.246Z,1016.32
2018-02-18T09:10:20.897Z,1016.39
2018-02-18T09:11:36.527Z,1016.39
2018-02-18T09:12:51.280Z,1016.35
2018-02-18T09:14:06.560Z,1016.37
2018-02-18T09:15:20.560Z,1016.34
2018-02-18T09:16:36.329Z,1016.31
2018-02-18T09:17:50.783Z,1016.34
2018-02-18T09:19:06.271Z,1016.32
2018-02-18T09:20:21.029Z,1016.33
2018-02-18T09:21:35.816Z,1016.29
2018-02-18T09:22:50.845Z,1016.32
2018-02-18T09:24:05.808Z,1016.3
2018-02-18T09:25:20.517Z,1016.31
2018-02-18T09:26:35.887Z,1016.25
2018-02-18T09:27:50.586Z,1016.26
2018-02-18T09:29:05.931Z,1016.24
2018-02-18T09:30:20.926Z,1016.22
2018-02-18T09:31:35.583Z,1016.27
2018-02-18T09:32:49.741Z,1016.32
2018-02-18T09:34:05.257Z,1016.32
2018-02-18T09:35:20.810Z,1016.28
2018-02-18T09:36:35.012Z,1016.3
2018-02-18T09:37:50.116Z,1016.27
2018-02-18T09:39:05.036Z,1016.28
2018-02-18T09:40:19.300Z,1016.32
2018-02-18T09:41:34.321Z,1016.36
2018-02-18T09:42:49.263Z,1016.4
2018-02-18T09:44:03.903Z,1016.42
2018-02-18T09:45:18.953Z,1016.38
2018-02-18T09:46:34.045Z,1016.34
2018-02-18T09:47:49.092Z,1016.38
2018-02-18T09:49:04.218Z,1016.36
2018-02-18T09:50:18.703Z,1016.32
2018-02-18T09:51:33.437Z,1016.29
2018-02-18T09:52:48.248Z,1016.27
2018-02-18T09:54:03.619Z,1016.32
2018-02-18T09:55:18.636Z,1016.27
2018-02-18T09:56:33.463Z,1016.31
2018-02-18T09:57:48.583Z,1016.3
2018-02-18T09:59:04.048Z,1016.29
2018-02-18T10:00:19.056Z,1016.27
2018-02-18T10:01:33.359Z,1016.33
2018-02-18T10:02:48.072Z,1016.35
2018-02-18T10:04:03.707Z,1016.32
2018-02-18T10:05:18.198Z,1016.4
2018-02-18T10:06:33.144Z,1016.4
2018-02-18T10:07:47.635Z,1016.42
2018-02-18T10:09:02.966Z,1016.34
2018-02-18T10:10:17.156Z,1016.33
2018-02-18T10:11:31.672Z,1016.34
2018-02-18T10:12:46.404Z,1016.29
2018-02-18T10:14:01.603Z,1016.23
2018-02-18T10:15:16.449Z,1016.24
2018-02-18T10:16:31.323Z,1016.29
2018-02-18T10:17:45.785Z,1016.26
2018-02-18T10:19:00.355Z,1016.29
2018-02-18T10:20:15.016Z,1016.24
2018-02-18T10:21:29.627Z,1016.25
2018-02-18T10:22:44.407Z,1016.27
2018-02-18T10:24:00.407Z,1016.26
2018-02-18T10:25:14.520Z,1016.22
2018-02-18T10:26:29.243Z,1016.18
2018-02-18T10:27:44.018Z,1016.22
2018-02-18T10:28:58.722Z,1016.25
2018-02-18T10:30:13.897Z,1016.26
2018-02-18T10:31:29.427Z,1016.21
2018-02-18T10:32:44.224Z,1016.25
2018-02-18T10:33:59.392Z,1016.21
2018-02-18T10:35:14.644Z,1016.22
2018-02-18T10:36:29.715Z,1016.25
2018-02-18T10:37:44.322Z,1016.24
2018-02-18T10:38:58.400Z,1016.26
2018-02-18T10:40:13.267Z,1016.27
2018-02-18T10:41:28.087Z,1016.24
2018-02-18T10:42:43.011Z,1016.19
2018-02-18T10:43:57.923Z,1016.21
2018-02-18T10:45:12.829Z,1016.26
2018-02-18T10:46:27.390Z,1016.24
2018-02-18T10:47:42.203Z,1016.26
2018-02-18T10:48:56.967Z,1016.24
2018-02-18T10:50:12.356Z,1016.22
2018-02-18T10:51:26.676Z,1016.28
2018-02-18T10:52:41.695Z,1016.29
2018-02-18T10:53:56.498Z,1016.2
2018-02-18T10:55:11.156Z,1016.19
2018-02-18T10:56:26.115Z,1016.19
2018-02-18T10:57:40.624Z,1016.21
2018-02-18T10:58:55.427Z,1016.13
2018-02-18T11:00:10.281Z,1016.14
2018-02-18T11:01:25.393Z,1016.19
2018-02-18T11:02:40.215Z,1016.15
2018-02-18T11:03:55.556Z,1016.16
2018-02-18T11:05:10.684Z,1016.12
2018-02-18T11:06:25.580Z,1016.13
2018-02-18T11:07:40.059Z,1016.14
2018-02-18T11:08:54.926Z,1016.13
2018-02-18T11:10:09.809Z,1016.11
2018-02-18T11:11:24.815Z,1016.08
2018-02-18T11:12:39.450Z,1016.04
2018-02-18T11:13:53.793Z,1016.06
2018-02-18T11:15:08.665Z,1016.05
2018-02-18T11:16:23.761Z,1015.99
2018-02-18T11:17:38.609Z,1016
2018-02-18T11:18:52.914Z,1015.93
2018-02-18T11:20:08.066Z,1015.91
2018-02-18T11:21:24.040Z,1015.93
2018-02-18T11:22:38.281Z,1015.94
2018-02-18T11:23:52.779Z,1015.95
2018-02-18T11:25:07.281Z,1015.94
2018-02-18T11:26:21.949Z,1015.92
2018-02-18T11:27:36.273Z,1015.92
2018-02-18T11:28:51.659Z,1015.93
2018-02-18T11:30:06.772Z,1015.91
2018-02-18T11:31:21.793Z,1015.91
2018-02-18T11:32:36.600Z,1015.89
2018-02-18T11:33:50.828Z,1015.9
2018-02-18T11:35:06.206Z,1015.91
2018-02-18T11:36:20.562Z,1015.9
2018-02-18T11:37:35.580Z,1015.88
2018-02-18T11:38:50.323Z,1015.94
2018-02-18T11:40:05.647Z,1015.9
2018-02-18T11:41:19.737Z,1015.9
2018-02-18T11:42:34.283Z,1015.92
2018-02-18T11:43:49.399Z,1015.92
2018-02-18T11:45:03.977Z,1015.89
2018-02-18T11:46:19.722Z,1015.88
2018-02-18T11:47:33.972Z,1015.89
2018-02-18T11:48:48.926Z,1015.84
2018-02-18T11:50:03.670Z,1015.85
2018-02-18T11:51:18.830Z,1015.85
2018-02-18T11:52:33.844Z,1015.82
2018-02-18T11:53:49.115Z,1015.78
2018-02-18T11:55:04.149Z,1015.72
2018-02-18T11:56:18.918Z,1015.71
2018-02-18T11:57:33.548Z,1015.72
2018-02-18T11:58:48.214Z,1015.71
2018-02-18T12:00:02.479Z,1015.65
2018-02-18T12:01:17.604Z,1015.64
2018-02-18T12:02:32.204Z,1015.63
2018-02-18T12:03:46.940Z,1015.62
2018-02-18T12:05:02.761Z,1015.6
2018-02-18T12:06:17.642Z,1015.57
2018-02-18T12:07:32.182Z,1015.54
2018-02-18T12:08:46.427Z,1015.55
2018-02-18T12:10:01.334Z,1015.49
2018-02-18T12:11:17.022Z,1015.45
2018-02-18T12:12:31.334Z,1015.49
2018-02-18T12:13:46.155Z,1015.49
2018-02-18T12:15:00.994Z,1015.44
2018-02-18T12:16:15.513Z,1015.5
2018-02-18T12:17:30.759Z,1015.49
2018-02-18T12:18:45.563Z,1015.52
2018-02-18T12:20:00.661Z,1015.5
2018-02-18T12:21:15.176Z,1015.52
2018-02-18T12:22:30.009Z,1015.52
2018-02-18T12:23:45.093Z,1015.51
2018-02-18T12:24:59.343Z,1015.52
2018-02-18T12:26:13.860Z,1015.43
2018-02-18T12:27:28.845Z,1015.55
2018-02-18T12:28:43.060Z,1015.54
2018-02-18T12:29:57.983Z,1015.47
2018-02-18T12:31:12.800Z,1015.48
2018-02-18T12:32:27.957Z,1015.44
2018-02-18T12:33:43.506Z,1015.47
2018-02-18T12:34:58.504Z,1015.44
2018-02-18T12:36:13.345Z,1015.39
2018-02-18T12:37:27.690Z,1015.45
2018-02-18T12:38:42.516Z,1015.44
2018-02-18T12:39:56.960Z,1015.36
2018-02-18T12:41:11.188Z,1015.36
2018-02-18T12:42:26.120Z,1015.38
2018-02-18T12:43:40.908Z,1015.36
2018-02-18T12:44:55.261Z,1015.39
2018-02-18T12:46:10.057Z,1015.45
2018-02-18T12:47:24.847Z,1015.38
2018-02-18T12:48:40.341Z,1015.4
2018-02-18T12:49:54.854Z,1015.4
2018-02-18T12:51:09.757Z,1015.44
2018-02-18T12:52:24.834Z,1015.38
2018-02-18T12:53:39.488Z,1015.32
2018-02-18T12:54:54.770Z,1015.35
2018-02-18T12:56:09.583Z,1015.33
2018-02-18T12:57:24.599Z,1015.32
2018-02-18T12:58:40.040Z,1015.25
2018-02-18T12:59:54.487Z,1015.26
2018-02-18T13:01:09.914Z,1015.26
2018-02-18T13:02:24.220Z,1015.28
2018-02-18T13:03:39.201Z,1015.18
2018-02-18T13:04:54.019Z,1015.11
2018-02-18T13:06:09.422Z,1015.14
2018-02-18T13:07:23.991Z,1015.07
2018-02-18T13:08:38.966Z,1015.09
2018-02-18T13:13:26.269Z,1015.07
2018-02-18T13:14:41.680Z,1015
2018-02-18T13:15:56.958Z,1014.96
2018-02-18T13:17:12.249Z,1014.97
2018-02-18T13:18:27.534Z,1014.9
2018-02-18T13:19:42.522Z,1014.97
2018-02-18T13:20:57.629Z,1014.89
2018-02-18T13:22:12.702Z,1014.86
2018-02-18T13:23:27.616Z,1014.87
2018-02-18T13:24:42.540Z,1014.87
2018-02-18T13:25:57.300Z,1014.9
2018-02-18T13:27:12.020Z,1014.83
2018-02-18T13:28:27.373Z,1014.8
2018-02-18T13:29:42.395Z,1014.8
2018-02-18T13:30:56.688Z,1014.85
2018-02-18T13:32:11.494Z,1014.86
2018-02-18T13:33:26.772Z,1014.87
2018-02-18T13:34:40.794Z,1014.88
2018-02-18T13:35:56.154Z,1014.89
2018-02-18T13:37:10.537Z,1014.87
2018-02-18T13:38:25.080Z,1014.82
2018-02-18T13:40:11.508Z,1014.8
2018-02-18T13:41:26.314Z,1014.82
2018-02-18T13:42:40.843Z,1014.79
2018-02-18T13:43:55.533Z,1014.8
2018-02-18T13:45:10.617Z,1014.78
2018-02-18T13:46:25.177Z,1014.74
2018-02-18T13:47:39.721Z,1014.77
2018-02-18T13:48:53.668Z,1014.72
2018-02-18T13:50:08.917Z,1014.72
2018-02-18T13:51:23.550Z,1014.67
2018-02-18T13:52:39.086Z,1014.71
2018-02-18T13:53:53.906Z,1014.69
2018-02-18T13:55:08.568Z,1014.64
2018-02-18T13:56:23.826Z,1014.7
2018-02-18T13:57:38.686Z,1014.64
2018-02-18T13:58:54.024Z,1014.62
2018-02-18T14:00:08.923Z,1014.65
2018-02-18T14:01:23.350Z,1014.64
2018-02-18T14:02:38.399Z,1014.65
2018-02-18T14:03:52.976Z,1014.63
2018-02-18T14:05:08.079Z,1014.63
2018-02-18T14:06:22.721Z,1014.62
2018-02-18T14:07:38.044Z,1014.65
2018-02-18T14:08:53.272Z,1014.58
2018-02-18T14:10:07.616Z,1014.51
2018-02-18T14:11:22.541Z,1014.56
2018-02-18T14:12:37.628Z,1014.54
2018-02-18T14:13:51.876Z,1014.51
2018-02-18T14:15:07.166Z,1014.54
2018-02-18T14:16:22.452Z,1014.52
2018-02-18T14:17:37.929Z,1014.51
2018-02-18T14:18:52.911Z,1014.48
2018-02-18T14:20:07.380Z,1014.48
2018-02-18T14:21:22.124Z,1014.48
2018-02-18T14:22:36.478Z,1014.45
2018-02-18T14:23:51.440Z,1014.51
2018-02-18T14:25:07.179Z,1014.56
2018-02-18T14:26:22.423Z,1014.55
2018-02-18T14:27:36.954Z,1014.58
2018-02-18T14:28:51.439Z,1014.57
2018-02-18T14:30:06.743Z,1014.53
2018-02-18T14:31:21.313Z,1014.53
2018-02-18T14:32:36.353Z,1014.56
2018-02-18T14:33:50.784Z,1014.56
2018-02-18T14:35:05.865Z,1014.55
2018-02-18T14:36:20.668Z,1014.55
2018-02-18T14:37:35.183Z,1014.51
2018-02-18T14:38:49.947Z,1014.54
2018-02-18T14:40:04.815Z,1014.55
2018-02-18T14:41:18.854Z,1014.5
2018-02-18T14:42:33.597Z,1014.52
2018-02-18T14:43:48.543Z,1014.53
2018-02-18T14:45:03.069Z,1014.46
2018-02-18T14:46:17.987Z,1014.42
2018-02-18T14:47:32.588Z,1014.42
2018-02-18T14:48:47.391Z,1014.4
2018-02-18T14:50:01.919Z,1014.37
2018-02-18T14:51:17.057Z,1014.33
2018-02-18T14:52:31.587Z,1014.34
2018-02-18T14:53:45.539Z,1014.3
2018-02-18T14:55:00.321Z,1014.22
2018-02-18T14:56:15.690Z,1014.25
2018-02-18T14:57:30.309Z,1014.18
2018-02-18T14:58:45.429Z,1014.28
2018-02-18T14:59:59.795Z,1014.29
2018-02-18T15:01:14.769Z,1014.27
2018-02-18T15:02:29.593Z,1014.28
2018-02-18T15:03:44.235Z,1014.32
2018-02-18T15:04:58.919Z,1014.4
2018-02-18T15:06:14.179Z,1014.36
2018-02-18T15:07:28.952Z,1014.34
2018-02-18T15:08:43.798Z,1014.37
2018-02-18T15:09:58.623Z,1014.31
2018-02-18T15:11:13.440Z,1014.3
2018-02-18T15:12:28.268Z,1014.26
2018-02-18T15:13:43.295Z,1014.26
2018-02-18T15:14:58.111Z,1014.23
2018-02-18T15:16:12.483Z,1014.25
2018-02-18T15:17:27.327Z,1014.24